Pagina principale
METAR-TAF:

METAR-TAF

Aeroporti :

Aeroporto di Viterbo

Viterbo, Italia

latitudine: 42-26N, longitudine: 012-03E, altezza: 300 m

Osservazione

Il bollettino è stato emesso 4 ore e 5 minuti fa, alle 17:55 UTC
Temperature 6°C
Umidità 87%
Pressione 1002 hPa
Visibilità 10 km o più
Nubi sparse ad un'altezza di 2800 ft
pioggia debole

METAR: LIRV 191755Z /////KT 9999 -RA SCT028 06/04 Q1002

Ora: 23:00 (22:00 UTC)

Previsione

Il bollettino è stato emesso 8 ore e 0 minuti fa, alle 14:00 UTC
Previsione valida dal 19 alle 15 UTC al 19 alle 24 UTC
Vento 15 kt da nord/nord-est
Visibilità 10 km o più
Nubi sparse ad un'altezza di 2000 ft
Nubi sparse ad un'altezza di 5000 ft
Temporaneamente
dal 19 alle 15 UTC al 19 alle 21 UTC
Visibilità: 5000 m
Nuvoloso ad un'altezza di 2000 ft
Nuvoloso ad un'altezza di 5000 ft
pioggia, foschia

TAF: LIRV 191400Z 1915/1924 03015KT 9999 SCT020 SCT050 TEMPO 1915/1921 5000 RA BR BKN020 BKN050

Osservazioni e previsioni meteorologiche di più di 4000 aeroporti (messaggi METAR e TAF).

Le stazioni disponibili sono rappresentate dai dischi gialli e rossi sulla carta.

Puntare il mouse per vedere il nome della stazione.

Clicca sopra per visualizzare le osservazioni e previsioni meteorologiche.

Per cambiare la mappa : fare clic sui pulsanti verdi con una croce nera per ingrandire, il pulsante verde con un trattino per diminuire, o sulla freccia verde per le mappe adiacenti.


METAR-TAF: